sensor_id;sensor_type;location;lat;lon;timestamp;P1;durP1;ratioP1;P2;durP2;ratioP2
29120;SDS011;16191;49.548;8.658;2023-04-29T00:01:00;8.32;;;5.40;;
29120;SDS011;16191;49.548;8.658;2023-04-29T00:03:28;7.63;;;5.20;;
29120;SDS011;16191;49.548;8.658;2023-04-29T00:05:58;10.77;;;5.80;;
29120;SDS011;16191;49.548;8.658;2023-04-29T00:08:25;14.48;;;5.38;;
29120;SDS011;16191;49.548;8.658;2023-04-29T00:10:51;10.07;;;5.10;;
29120;SDS011;16191;49.548;8.658;2023-04-29T00:13:18;11.32;;;4.70;;
29120;SDS011;16191;49.548;8.658;2023-04-29T00:15:44;6.85;;;5.03;;
29120;SDS011;16191;49.548;8.658;2023-04-29T00:18:11;11.45;;;4.95;;
29120;SDS011;16191;49.548;8.658;2023-04-29T00:20:39;12.43;;;6.75;;
29120;SDS011;16191;49.548;8.658;2023-04-29T00:23:05;15.95;;;7.93;;
29120;SDS011;16191;49.548;8.658;2023-04-29T00:25:33;13.75;;;7.70;;
29120;SDS011;16191;49.548;8.658;2023-04-29T00:28:00;14.75;;;9.10;;
29120;SDS011;16191;49.548;8.658;2023-04-29T00:30:27;25.15;;;12.15;;
29120;SDS011;16191;49.548;8.658;2023-04-29T00:32:54;18.90;;;11.85;;
29120;SDS011;16191;49.548;8.658;2023-04-29T00:35:20;24.48;;;13.85;;
29120;SDS011;16191;49.548;8.658;2023-04-29T00:37:48;26.98;;;12.88;;
29120;SDS011;16191;49.548;8.658;2023-04-29T00:40:14;26.77;;;11.63;;
29120;SDS011;16191;49.548;8.658;2023-04-29T00:42:42;30.02;;;13.55;;
29120;SDS011;16191;49.548;8.658;2023-04-29T00:45:09;23.67;;;10.65;;
29120;SDS011;16191;49.548;8.658;2023-04-29T00:47:37;19.23;;;10.07;;
29120;SDS011;16191;49.548;8.658;2023-04-29T00:50:04;21.27;;;11.95;;
29120;SDS011;16191;49.548;8.658;2023-04-29T00:52:32;23.30;;;12.20;;
29120;SDS011;16191;49.548;8.658;2023-04-29T00:55:00;37.42;;;12.38;;
29120;SDS011;16191;49.548;8.658;2023-04-29T00:57:27;33.30;;;12.25;;
29120;SDS011;16191;49.548;8.658;2023-04-29T00:59:58;41.05;;;12.63;;
29120;SDS011;16191;49.548;8.658;2023-04-29T01:02:25;29.13;;;12.35;;
29120;SDS011;16191;49.548;8.658;2023-04-29T01:04:53;21.15;;;11.40;;
29120;SDS011;16191;49.548;8.658;2023-04-29T01:07:23;27.73;;;13.45;;
29120;SDS011;16191;49.548;8.658;2023-04-29T01:10:00;23.17;;;13.05;;
29120;SDS011;16191;49.548;8.658;2023-04-29T01:15:34;27.02;;;13.55;;
29120;SDS011;16191;49.548;8.658;2023-04-29T01:18:36;28.42;;;12.63;;
29120;SDS011;16191;49.548;8.658;2023-04-29T01:21:06;25.70;;;13.15;;
29120;SDS011;16191;49.548;8.658;2023-04-29T01:23:33;39.38;;;13.60;;
29120;SDS011;16191;49.548;8.658;2023-04-29T01:25:59;23.95;;;14.02;;
29120;SDS011;16191;49.548;8.658;2023-04-29T01:28:45;26.73;;;13.38;;
29120;SDS011;16191;49.548;8.658;2023-04-29T01:31:27;31.10;;;13.88;;
29120;SDS011;16191;49.548;8.658;2023-04-29T01:39:33;35.80;;;13.57;;
29120;SDS011;16191;49.548;8.658;2023-04-29T01:45:37;26.05;;;13.68;;
29120;SDS011;16191;49.548;8.658;2023-04-29T01:48:27;26.08;;;12.98;;
29120;SDS011;16191;49.548;8.658;2023-04-29T01:51:14;21.90;;;14.07;;
29120;SDS011;16191;49.548;8.658;2023-04-29T01:54:01;21.92;;;12.88;;
29120;SDS011;16191;49.548;8.658;2023-04-29T01:56:28;21.38;;;13.43;;
29120;SDS011;16191;49.548;8.658;2023-04-29T01:59:13;53.75;;;18.45;;
29120;SDS011;16191;49.548;8.658;2023-04-29T02:01:58;26.95;;;16.05;;
29120;SDS011;16191;49.548;8.658;2023-04-29T02:04:25;23.08;;;16.05;;
29120;SDS011;16191;49.548;8.658;2023-04-29T02:06:53;20.35;;;14.65;;
29120;SDS011;16191;49.548;8.658;2023-04-29T02:09:19;22.77;;;14.65;;
29120;SDS011;16191;49.548;8.658;2023-04-29T02:11:51;25.38;;;15.18;;
29120;SDS011;16191;49.548;8.658;2023-04-29T02:14:18;21.08;;;13.73;;
29120;SDS011;16191;49.548;8.658;2023-04-29T02:16:44;23.65;;;15.32;;
29120;SDS011;16191;49.548;8.658;2023-04-29T02:19:12;19.70;;;13.90;;
29120;SDS011;16191;49.548;8.658;2023-04-29T02:21:39;20.67;;;13.95;;
29120;SDS011;16191;49.548;8.658;2023-04-29T02:24:05;18.15;;;14.30;;
29120;SDS011;16191;49.548;8.658;2023-04-29T02:26:32;17.65;;;13.77;;
29120;SDS011;16191;49.548;8.658;2023-04-29T02:28:59;19.60;;;13.93;;
29120;SDS011;16191;49.548;8.658;2023-04-29T02:31:26;17.30;;;13.70;;
29120;SDS011;16191;49.548;8.658;2023-04-29T02:33:54;19.00;;;13.75;;
29120;SDS011;16191;49.548;8.658;2023-04-29T02:36:21;17.90;;;13.02;;
29120;SDS011;16191;49.548;8.658;2023-04-29T02:38:50;15.90;;;12.20;;
29120;SDS011;16191;49.548;8.658;2023-04-29T02:41:19;17.48;;;11.98;;
29120;SDS011;16191;49.548;8.658;2023-04-29T02:43:46;14.63;;;11.65;;
29120;SDS011;16191;49.548;8.658;2023-04-29T02:46:14;15.68;;;11.30;;
29120;SDS011;16191;49.548;8.658;2023-04-29T02:48:42;13.65;;;10.80;;
29120;SDS011;16191;49.548;8.658;2023-04-29T02:51:08;12.07;;;10.15;;
29120;SDS011;16191;49.548;8.658;2023-04-29T02:53:35;12.00;;;8.82;;
29120;SDS011;16191;49.548;8.658;2023-04-29T02:56:02;9.65;;;8.20;;
29120;SDS011;16191;49.548;8.658;2023-04-29T02:58:30;9.50;;;7.22;;
29120;SDS011;16191;49.548;8.658;2023-04-29T03:00:56;10.50;;;7.22;;
29120;SDS011;16191;49.548;8.658;2023-04-29T03:03:23;8.68;;;7.30;;
29120;SDS011;16191;49.548;8.658;2023-04-29T03:05:50;7.28;;;5.57;;
29120;SDS011;16191;49.548;8.658;2023-04-29T03:08:17;8.77;;;5.97;;
29120;SDS011;16191;49.548;8.658;2023-04-29T03:10:44;7.80;;;5.20;;
29120;SDS011;16191;49.548;8.658;2023-04-29T03:13:11;7.22;;;5.18;;
29120;SDS011;16191;49.548;8.658;2023-04-29T03:15:39;9.82;;;5.80;;
29120;SDS011;16191;49.548;8.658;2023-04-29T03:18:06;10.57;;;5.65;;
29120;SDS011;16191;49.548;8.658;2023-04-29T03:20:33;5.93;;;4.20;;
29120;SDS011;16191;49.548;8.658;2023-04-29T03:23:02;5.68;;;4.40;;
29120;SDS011;16191;49.548;8.658;2023-04-29T03:25:29;6.25;;;4.30;;
29120;SDS011;16191;49.548;8.658;2023-04-29T03:27:56;5.43;;;3.58;;
29120;SDS011;16191;49.548;8.658;2023-04-29T03:30:23;8.73;;;3.80;;
29120;SDS011;16191;49.548;8.658;2023-04-29T03:32:53;5.78;;;4.28;;
29120;SDS011;16191;49.548;8.658;2023-04-29T03:35:20;3.70;;;2.92;;
29120;SDS011;16191;49.548;8.658;2023-04-29T03:38:07;6.85;;;3.42;;
29120;SDS011;16191;49.548;8.658;2023-04-29T03:40:35;3.80;;;3.38;;
29120;SDS011;16191;49.548;8.658;2023-04-29T03:43:02;8.20;;;3.58;;
29120;SDS011;16191;49.548;8.658;2023-04-29T03:45:29;5.97;;;3.47;;
29120;SDS011;16191;49.548;8.658;2023-04-29T03:47:56;4.65;;;3.58;;
29120;SDS011;16191;49.548;8.658;2023-04-29T03:50:23;5.88;;;3.70;;
29120;SDS011;16191;49.548;8.658;2023-04-29T03:52:51;6.22;;;3.35;;
29120;SDS011;16191;49.548;8.658;2023-04-29T03:55:18;4.43;;;3.65;;
29120;SDS011;16191;49.548;8.658;2023-04-29T03:57:46;3.50;;;3.00;;
29120;SDS011;16191;49.548;8.658;2023-04-29T04:00:14;3.65;;;2.33;;
29120;SDS011;16191;49.548;8.658;2023-04-29T04:02:49;3.45;;;2.28;;
29120;SDS011;16191;49.548;8.658;2023-04-29T04:05:16;3.53;;;2.50;;
29120;SDS011;16191;49.548;8.658;2023-04-29T04:07:51;3.28;;;2.05;;
29120;SDS011;16191;49.548;8.658;2023-04-29T04:10:32;2.75;;;2.17;;
29120;SDS011;16191;49.548;8.658;2023-04-29T04:13:02;3.92;;;2.45;;
29120;SDS011;16191;49.548;8.658;2023-04-29T04:15:30;3.85;;;2.58;;
29120;SDS011;16191;49.548;8.658;2023-04-29T04:17:57;2.80;;;2.20;;
29120;SDS011;16191;49.548;8.658;2023-04-29T04:20:24;4.38;;;2.28;;
29120;SDS011;16191;49.548;8.658;2023-04-29T04:22:51;3.95;;;2.10;;
29120;SDS011;16191;49.548;8.658;2023-04-29T04:25:22;2.67;;;2.30;;
29120;SDS011;16191;49.548;8.658;2023-04-29T04:27:50;4.55;;;2.35;;
29120;SDS011;16191;49.548;8.658;2023-04-29T04:30:37;3.25;;;2.85;;
29120;SDS011;16191;49.548;8.658;2023-04-29T04:33:04;4.60;;;2.50;;
29120;SDS011;16191;49.548;8.658;2023-04-29T04:35:31;3.55;;;2.80;;
29120;SDS011;16191;49.548;8.658;2023-04-29T04:37:58;3.17;;;2.00;;
29120;SDS011;16191;49.548;8.658;2023-04-29T04:40:24;2.95;;;2.10;;
29120;SDS011;16191;49.548;8.658;2023-04-29T04:43:09;4.22;;;2.40;;
29120;SDS011;16191;49.548;8.658;2023-04-29T04:45:39;4.50;;;2.33;;
29120;SDS011;16191;49.548;8.658;2023-04-29T04:48:06;3.38;;;2.30;;
29120;SDS011;16191;49.548;8.658;2023-04-29T04:50:35;4.65;;;2.28;;
29120;SDS011;16191;49.548;8.658;2023-04-29T04:53:02;4.38;;;1.80;;
29120;SDS011;16191;49.548;8.658;2023-04-29T04:55:41;2.50;;;2.03;;
29120;SDS011;16191;49.548;8.658;2023-04-29T04:58:08;5.65;;;2.38;;
29120;SDS011;16191;49.548;8.658;2023-04-29T05:00:35;5.18;;;2.50;;
29120;SDS011;16191;49.548;8.658;2023-04-29T05:03:02;3.03;;;2.10;;
29120;SDS011;16191;49.548;8.658;2023-04-29T05:05:29;7.43;;;2.80;;
29120;SDS011;16191;49.548;8.658;2023-04-29T05:07:55;3.78;;;2.25;;
29120;SDS011;16191;49.548;8.658;2023-04-29T05:10:29;4.00;;;2.22;;
29120;SDS011;16191;49.548;8.658;2023-04-29T05:12:59;4.47;;;2.40;;
29120;SDS011;16191;49.548;8.658;2023-04-29T05:15:25;5.45;;;2.30;;
29120;SDS011;16191;49.548;8.658;2023-04-29T05:17:55;2.38;;;2.15;;
29120;SDS011;16191;49.548;8.658;2023-04-29T05:20:23;5.05;;;1.92;;
29120;SDS011;16191;49.548;8.658;2023-04-29T05:22:50;5.43;;;2.45;;
29120;SDS011;16191;49.548;8.658;2023-04-29T05:25:17;3.40;;;2.40;;
29120;SDS011;16191;49.548;8.658;2023-04-29T05:27:44;2.58;;;1.90;;
29120;SDS011;16191;49.548;8.658;2023-04-29T05:30:14;5.45;;;2.10;;
29120;SDS011;16191;49.548;8.658;2023-04-29T05:32:41;2.92;;;2.25;;
29120;SDS011;16191;49.548;8.658;2023-04-29T05:35:12;3.38;;;1.88;;
29120;SDS011;16191;49.548;8.658;2023-04-29T05:37:38;6.60;;;3.47;;
29120;SDS011;16191;49.548;8.658;2023-04-29T05:40:25;2.05;;;1.65;;
29120;SDS011;16191;49.548;8.658;2023-04-29T05:43:00;4.00;;;2.20;;
29120;SDS011;16191;49.548;8.658;2023-04-29T05:45:27;3.95;;;2.03;;
29120;SDS011;16191;49.548;8.658;2023-04-29T05:47:54;4.78;;;2.40;;
29120;SDS011;16191;49.548;8.658;2023-04-29T05:50:21;4.05;;;2.22;;
29120;SDS011;16191;49.548;8.658;2023-04-29T05:52:48;2.58;;;1.90;;
29120;SDS011;16191;49.548;8.658;2023-04-29T05:55:14;3.13;;;2.20;;
29120;SDS011;16191;49.548;8.658;2023-04-29T05:57:41;3.28;;;2.10;;
29120;SDS011;16191;49.548;8.658;2023-04-29T06:00:08;3.08;;;2.00;;
29120;SDS011;16191;49.548;8.658;2023-04-29T06:02:44;4.47;;;2.05;;
29120;SDS011;16191;49.548;8.658;2023-04-29T06:05:25;4.55;;;2.00;;
29120;SDS011;16191;49.548;8.658;2023-04-29T06:08:08;2.83;;;2.20;;
29120;SDS011;16191;49.548;8.658;2023-04-29T06:10:48;5.00;;;2.85;;
29120;SDS011;16191;49.548;8.658;2023-04-29T06:13:17;4.22;;;3.38;;
29120;SDS011;16191;49.548;8.658;2023-04-29T06:15:44;6.05;;;3.80;;
29120;SDS011;16191;49.548;8.658;2023-04-29T06:18:12;4.60;;;3.72;;
29120;SDS011;16191;49.548;8.658;2023-04-29T06:20:39;7.40;;;4.57;;
29120;SDS011;16191;49.548;8.658;2023-04-29T06:23:05;6.93;;;4.85;;
29120;SDS011;16191;49.548;8.658;2023-04-29T06:25:32;8.45;;;5.13;;
29120;SDS011;16191;49.548;8.658;2023-04-29T06:28:03;6.95;;;4.97;;
29120;SDS011;16191;49.548;8.658;2023-04-29T06:30:30;7.25;;;5.10;;
29120;SDS011;16191;49.548;8.658;2023-04-29T06:32:57;6.13;;;4.78;;
29120;SDS011;16191;49.548;8.658;2023-04-29T06:35:24;6.57;;;4.38;;
29120;SDS011;16191;49.548;8.658;2023-04-29T06:38:06;5.40;;;4.28;;
29120;SDS011;16191;49.548;8.658;2023-04-29T06:40:54;7.15;;;5.03;;
29120;SDS011;16191;49.548;8.658;2023-04-29T06:43:41;8.15;;;5.60;;
29120;SDS011;16191;49.548;8.658;2023-04-29T06:46:33;9.45;;;6.88;;
29120;SDS011;16191;49.548;8.658;2023-04-29T06:49:03;12.43;;;6.57;;
29120;SDS011;16191;49.548;8.658;2023-04-29T06:51:30;9.90;;;7.22;;
29120;SDS011;16191;49.548;8.658;2023-04-29T06:53:58;11.25;;;7.07;;
29120;SDS011;16191;49.548;8.658;2023-04-29T06:56:25;12.55;;;7.57;;
29120;SDS011;16191;49.548;8.658;2023-04-29T06:58:51;11.20;;;7.55;;
29120;SDS011;16191;49.548;8.658;2023-04-29T07:01:18;12.68;;;8.25;;
29120;SDS011;16191;49.548;8.658;2023-04-29T07:03:44;10.70;;;7.57;;
29120;SDS011;16191;49.548;8.658;2023-04-29T07:06:11;10.23;;;7.90;;
29120;SDS011;16191;49.548;8.658;2023-04-29T07:08:38;12.43;;;8.05;;
29120;SDS011;16191;49.548;8.658;2023-04-29T07:11:04;13.52;;;8.55;;
29120;SDS011;16191;49.548;8.658;2023-04-29T07:13:31;11.10;;;7.68;;
29120;SDS011;16191;49.548;8.658;2023-04-29T07:15:58;14.15;;;8.85;;
29120;SDS011;16191;49.548;8.658;2023-04-29T07:18:25;11.70;;;8.25;;
29120;SDS011;16191;49.548;8.658;2023-04-29T07:20:52;14.43;;;9.00;;
29120;SDS011;16191;49.548;8.658;2023-04-29T07:23:21;13.13;;;9.43;;
29120;SDS011;16191;49.548;8.658;2023-04-29T07:25:47;13.02;;;8.82;;
29120;SDS011;16191;49.548;8.658;2023-04-29T07:28:14;11.48;;;7.90;;
29120;SDS011;16191;49.548;8.658;2023-04-29T07:30:40;13.90;;;8.10;;
29120;SDS011;16191;49.548;8.658;2023-04-29T07:33:07;15.25;;;10.23;;
29120;SDS011;16191;49.548;8.658;2023-04-29T07:35:34;14.20;;;10.27;;
29120;SDS011;16191;49.548;8.658;2023-04-29T07:38:01;14.27;;;10.82;;
29120;SDS011;16191;49.548;8.658;2023-04-29T07:40:29;17.65;;;12.10;;
29120;SDS011;16191;49.548;8.658;2023-04-29T07:42:56;17.95;;;11.48;;
29120;SDS011;16191;49.548;8.658;2023-04-29T07:45:23;18.35;;;11.25;;
29120;SDS011;16191;49.548;8.658;2023-04-29T07:47:49;18.92;;;11.70;;
29120;SDS011;16191;49.548;8.658;2023-04-29T07:50:16;18.42;;;11.43;;
29120;SDS011;16191;49.548;8.658;2023-04-29T07:52:43;19.23;;;10.82;;
29120;SDS011;16191;49.548;8.658;2023-04-29T07:55:10;15.98;;;11.25;;
29120;SDS011;16191;49.548;8.658;2023-04-29T07:57:36;13.55;;;10.32;;
29120;SDS011;16191;49.548;8.658;2023-04-29T08:00:04;17.05;;;11.02;;
29120;SDS011;16191;49.548;8.658;2023-04-29T08:02:39;15.38;;;10.60;;
29120;SDS011;16191;49.548;8.658;2023-04-29T08:05:08;13.85;;;10.02;;
29120;SDS011;16191;49.548;8.658;2023-04-29T08:07:35;13.45;;;9.98;;
29120;SDS011;16191;49.548;8.658;2023-04-29T08:10:01;15.75;;;10.60;;
29120;SDS011;16191;49.548;8.658;2023-04-29T08:12:28;14.00;;;10.02;;
29120;SDS011;16191;49.548;8.658;2023-04-29T08:14:56;14.73;;;9.68;;
29120;SDS011;16191;49.548;8.658;2023-04-29T08:17:23;11.13;;;8.98;;
29120;SDS011;16191;49.548;8.658;2023-04-29T08:19:49;13.20;;;9.18;;
29120;SDS011;16191;49.548;8.658;2023-04-29T08:22:16;16.10;;;9.60;;
29120;SDS011;16191;49.548;8.658;2023-04-29T08:24:42;18.85;;;9.02;;
29120;SDS011;16191;49.548;8.658;2023-04-29T08:27:10;13.63;;;9.52;;
29120;SDS011;16191;49.548;8.658;2023-04-29T08:29:37;14.23;;;9.27;;
29120;SDS011;16191;49.548;8.658;2023-04-29T08:32:04;12.45;;;9.18;;
29120;SDS011;16191;49.548;8.658;2023-04-29T08:34:31;11.80;;;8.45;;
29120;SDS011;16191;49.548;8.658;2023-04-29T08:36:59;11.88;;;9.25;;
29120;SDS011;16191;49.548;8.658;2023-04-29T08:39:27;12.30;;;8.30;;
29120;SDS011;16191;49.548;8.658;2023-04-29T08:41:55;12.57;;;8.32;;
29120;SDS011;16191;49.548;8.658;2023-04-29T08:44:25;13.40;;;9.20;;
29120;SDS011;16191;49.548;8.658;2023-04-29T08:46:52;14.30;;;8.95;;
29120;SDS011;16191;49.548;8.658;2023-04-29T08:49:19;12.50;;;8.25;;
29120;SDS011;16191;49.548;8.658;2023-04-29T08:51:49;14.13;;;8.85;;
29120;SDS011;16191;49.548;8.658;2023-04-29T08:54:17;11.65;;;8.18;;
29120;SDS011;16191;49.548;8.658;2023-04-29T08:56:44;10.82;;;7.78;;
29120;SDS011;16191;49.548;8.658;2023-04-29T08:59:15;10.82;;;7.38;;
29120;SDS011;16191;49.548;8.658;2023-04-29T09:04:29;12.18;;;8.00;;
29120;SDS011;16191;49.548;8.658;2023-04-29T09:07:03;11.00;;;7.43;;
29120;SDS011;16191;49.548;8.658;2023-04-29T09:09:32;11.20;;;7.43;;
29120;SDS011;16191;49.548;8.658;2023-04-29T09:11:59;12.13;;;7.82;;
29120;SDS011;16191;49.548;8.658;2023-04-29T09:14:26;9.88;;;7.25;;
29120;SDS011;16191;49.548;8.658;2023-04-29T09:16:55;11.00;;;6.35;;
29120;SDS011;16191;49.548;8.658;2023-04-29T09:19:32;10.73;;;7.05;;
29120;SDS011;16191;49.548;8.658;2023-04-29T09:22:00;9.60;;;7.18;;
29120;SDS011;16191;49.548;8.658;2023-04-29T09:24:32;9.43;;;7.15;;
29120;SDS011;16191;49.548;8.658;2023-04-29T09:26:59;9.70;;;6.32;;
29120;SDS011;16191;49.548;8.658;2023-04-29T09:29:26;8.80;;;6.20;;
29120;SDS011;16191;49.548;8.658;2023-04-29T09:31:53;8.40;;;6.43;;
29120;SDS011;16191;49.548;8.658;2023-04-29T09:34:31;9.80;;;6.30;;
29120;SDS011;16191;49.548;8.658;2023-04-29T09:37:02;7.43;;;5.57;;
29120;SDS011;16191;49.548;8.658;2023-04-29T09:39:36;10.70;;;5.60;;
29120;SDS011;16191;49.548;8.658;2023-04-29T09:42:04;7.90;;;5.40;;
29120;SDS011;16191;49.548;8.658;2023-04-29T09:44:32;8.05;;;4.45;;
29120;SDS011;16191;49.548;8.658;2023-04-29T09:47:04;4.97;;;4.47;;
29120;SDS011;16191;49.548;8.658;2023-04-29T09:49:33;6.18;;;5.10;;
29120;SDS011;16191;49.548;8.658;2023-04-29T09:52:06;5.47;;;4.10;;
29120;SDS011;16191;49.548;8.658;2023-04-29T09:54:37;5.78;;;4.80;;
29120;SDS011;16191;49.548;8.658;2023-04-29T09:57:05;6.45;;;4.68;;
29120;SDS011;16191;49.548;8.658;2023-04-29T09:59:36;7.70;;;5.07;;
29120;SDS011;16191;49.548;8.658;2023-04-29T10:02:14;6.15;;;4.88;;
29120;SDS011;16191;49.548;8.658;2023-04-29T10:04:47;6.85;;;5.13;;
29120;SDS011;16191;49.548;8.658;2023-04-29T10:07:20;6.45;;;5.25;;
29120;SDS011;16191;49.548;8.658;2023-04-29T10:09:47;6.25;;;4.65;;
29120;SDS011;16191;49.548;8.658;2023-04-29T10:12:18;7.25;;;5.05;;
29120;SDS011;16191;49.548;8.658;2023-04-29T10:14:47;7.30;;;4.82;;
29120;SDS011;16191;49.548;8.658;2023-04-29T10:17:28;8.35;;;4.40;;
29120;SDS011;16191;49.548;8.658;2023-04-29T10:20:03;6.10;;;4.70;;
29120;SDS011;16191;49.548;8.658;2023-04-29T10:25:09;5.20;;;4.15;;
29120;SDS011;16191;49.548;8.658;2023-04-29T10:27:36;5.47;;;4.47;;
29120;SDS011;16191;49.548;8.658;2023-04-29T10:30:05;5.70;;;4.28;;
29120;SDS011;16191;49.548;8.658;2023-04-29T10:32:34;6.90;;;3.92;;
29120;SDS011;16191;49.548;8.658;2023-04-29T10:35:06;6.85;;;4.53;;
29120;SDS011;16191;49.548;8.658;2023-04-29T10:37:35;4.47;;;3.85;;
29120;SDS011;16191;49.548;8.658;2023-04-29T10:50:28;4.68;;;3.65;;
29120;SDS011;16191;49.548;8.658;2023-04-29T10:52:55;4.70;;;3.92;;
29120;SDS011;16191;49.548;8.658;2023-04-29T10:55:23;5.78;;;4.35;;
29120;SDS011;16191;49.548;8.658;2023-04-29T10:57:53;6.95;;;4.00;;
29120;SDS011;16191;49.548;8.658;2023-04-29T11:00:27;5.25;;;3.55;;
29120;SDS011;16191;49.548;8.658;2023-04-29T11:02:55;3.97;;;3.35;;
29120;SDS011;16191;49.548;8.658;2023-04-29T11:05:30;4.50;;;3.58;;
29120;SDS011;16191;49.548;8.658;2023-04-29T11:08:11;5.05;;;2.83;;
29120;SDS011;16191;49.548;8.658;2023-04-29T11:10:42;4.30;;;3.33;;
29120;SDS011;16191;49.548;8.658;2023-04-29T11:16:08;4.50;;;3.50;;
29120;SDS011;16191;49.548;8.658;2023-04-29T11:21:35;5.53;;;4.53;;
29120;SDS011;16191;49.548;8.658;2023-04-29T11:24:03;7.07;;;4.68;;
29120;SDS011;16191;49.548;8.658;2023-04-29T11:26:35;6.22;;;4.72;;
29120;SDS011;16191;49.548;8.658;2023-04-29T11:29:03;6.05;;;4.70;;
29120;SDS011;16191;49.548;8.658;2023-04-29T11:31:30;7.80;;;4.97;;
29120;SDS011;16191;49.548;8.658;2023-04-29T11:33:58;5.75;;;4.80;;
29120;SDS011;16191;49.548;8.658;2023-04-29T11:36:25;6.35;;;5.30;;
29120;SDS011;16191;49.548;8.658;2023-04-29T11:38:55;7.30;;;4.70;;
29120;SDS011;16191;49.548;8.658;2023-04-29T11:41:21;7.97;;;5.15;;
29120;SDS011;16191;49.548;8.658;2023-04-29T11:43:55;5.95;;;4.45;;
29120;SDS011;16191;49.548;8.658;2023-04-29T11:46:24;7.22;;;4.93;;
29120;SDS011;16191;49.548;8.658;2023-04-29T11:48:56;7.78;;;4.63;;
29120;SDS011;16191;49.548;8.658;2023-04-29T11:51:23;5.20;;;4.55;;
29120;SDS011;16191;49.548;8.658;2023-04-29T11:53:50;5.50;;;4.07;;
29120;SDS011;16191;49.548;8.658;2023-04-29T11:56:16;6.07;;;4.13;;
29120;SDS011;16191;49.548;8.658;2023-04-29T11:58:48;5.50;;;3.60;;
29120;SDS011;16191;49.548;8.658;2023-04-29T12:01:15;5.05;;;3.80;;
29120;SDS011;16191;49.548;8.658;2023-04-29T12:03:41;5.30;;;3.45;;
29120;SDS011;16191;49.548;8.658;2023-04-29T12:06:09;5.60;;;4.03;;
29120;SDS011;16191;49.548;8.658;2023-04-29T12:08:36;4.75;;;3.40;;
29120;SDS011;16191;49.548;8.658;2023-04-29T12:11:02;3.70;;;3.20;;
29120;SDS011;16191;49.548;8.658;2023-04-29T12:13:32;4.13;;;3.35;;
29120;SDS011;16191;49.548;8.658;2023-04-29T12:16:03;5.85;;;3.25;;
29120;SDS011;16191;49.548;8.658;2023-04-29T12:18:31;4.10;;;3.17;;
29120;SDS011;16191;49.548;8.658;2023-04-29T12:20:58;4.35;;;3.70;;
29120;SDS011;16191;49.548;8.658;2023-04-29T12:23:24;7.10;;;3.42;;
29120;SDS011;16191;49.548;8.658;2023-04-29T12:25:55;5.88;;;3.50;;
29120;SDS011;16191;49.548;8.658;2023-04-29T12:28:24;6.18;;;3.67;;
29120;SDS011;16191;49.548;8.658;2023-04-29T12:30:51;8.20;;;3.97;;
29120;SDS011;16191;49.548;8.658;2023-04-29T12:33:22;5.25;;;3.47;;
29120;SDS011;16191;49.548;8.658;2023-04-29T12:35:50;6.47;;;3.72;;
29120;SDS011;16191;49.548;8.658;2023-04-29T12:38:24;4.07;;;3.17;;
29120;SDS011;16191;49.548;8.658;2023-04-29T12:40:53;4.97;;;3.70;;
29120;SDS011;16191;49.548;8.658;2023-04-29T12:43:30;5.53;;;3.55;;
29120;SDS011;16191;49.548;8.658;2023-04-29T12:46:02;4.20;;;3.17;;
29120;SDS011;16191;49.548;8.658;2023-04-29T12:48:34;4.50;;;3.58;;
29120;SDS011;16191;49.548;8.658;2023-04-29T12:51:07;4.28;;;3.00;;
29120;SDS011;16191;49.548;8.658;2023-04-29T12:53:35;6.22;;;3.42;;
29120;SDS011;16191;49.548;8.658;2023-04-29T12:56:02;7.50;;;3.67;;
29120;SDS011;16191;49.548;8.658;2023-04-29T12:58:29;4.65;;;3.13;;
29120;SDS011;16191;49.548;8.658;2023-04-29T13:00:56;6.45;;;3.83;;
29120;SDS011;16191;49.548;8.658;2023-04-29T13:03:24;4.95;;;3.53;;
29120;SDS011;16191;49.548;8.658;2023-04-29T13:05:51;5.05;;;3.65;;
29120;SDS011;16191;49.548;8.658;2023-04-29T13:08:20;5.95;;;3.88;;
29120;SDS011;16191;49.548;8.658;2023-04-29T13:10:47;8.23;;;4.40;;
29120;SDS011;16191;49.548;8.658;2023-04-29T13:13:13;7.40;;;4.10;;
29120;SDS011;16191;49.548;8.658;2023-04-29T13:15:40;5.88;;;4.85;;
29120;SDS011;16191;49.548;8.658;2023-04-29T13:18:07;8.30;;;4.35;;
29120;SDS011;16191;49.548;8.658;2023-04-29T13:20:34;5.13;;;4.03;;
29120;SDS011;16191;49.548;8.658;2023-04-29T13:23:07;4.82;;;3.90;;
29120;SDS011;16191;49.548;8.658;2023-04-29T13:25:34;5.20;;;4.07;;
29120;SDS011;16191;49.548;8.658;2023-04-29T13:28:01;6.35;;;4.07;;
29120;SDS011;16191;49.548;8.658;2023-04-29T13:30:28;5.22;;;4.05;;
29120;SDS011;16191;49.548;8.658;2023-04-29T13:32:54;4.80;;;3.95;;
29120;SDS011;16191;49.548;8.658;2023-04-29T13:35:29;5.05;;;3.90;;
29120;SDS011;16191;49.548;8.658;2023-04-29T13:37:56;5.82;;;3.72;;
29120;SDS011;16191;49.548;8.658;2023-04-29T13:40:23;6.35;;;4.28;;
29120;SDS011;16191;49.548;8.658;2023-04-29T13:42:53;4.47;;;3.70;;
29120;SDS011;16191;49.548;8.658;2023-04-29T13:45:32;5.03;;;4.30;;
29120;SDS011;16191;49.548;8.658;2023-04-29T13:48:05;4.47;;;3.30;;
29120;SDS011;16191;49.548;8.658;2023-04-29T13:50:51;6.88;;;4.32;;
29120;SDS011;16191;49.548;8.658;2023-04-29T13:53:20;5.72;;;4.00;;
29120;SDS011;16191;49.548;8.658;2023-04-29T13:56:07;5.28;;;3.50;;
29120;SDS011;16191;49.548;8.658;2023-04-29T13:58:37;4.80;;;3.80;;
29120;SDS011;16191;49.548;8.658;2023-04-29T14:01:23;4.65;;;3.88;;
29120;SDS011;16191;49.548;8.658;2023-04-29T14:04:10;5.57;;;4.40;;
29120;SDS011;16191;49.548;8.658;2023-04-29T14:06:37;6.30;;;4.25;;
29120;SDS011;16191;49.548;8.658;2023-04-29T14:09:04;6.60;;;4.43;;
29120;SDS011;16191;49.548;8.658;2023-04-29T14:11:31;5.00;;;3.70;;
29120;SDS011;16191;49.548;8.658;2023-04-29T14:16:28;6.28;;;4.15;;
29120;SDS011;16191;49.548;8.658;2023-04-29T14:18:55;9.02;;;5.68;;
29120;SDS011;16191;49.548;8.658;2023-04-29T14:21:22;19.42;;;9.13;;
29120;SDS011;16191;49.548;8.658;2023-04-29T14:23:49;9.40;;;5.97;;
29120;SDS011;16191;49.548;8.658;2023-04-29T14:26:16;5.43;;;3.95;;
29120;SDS011;16191;49.548;8.658;2023-04-29T14:28:54;4.20;;;3.30;;
29120;SDS011;16191;49.548;8.658;2023-04-29T14:31:25;4.40;;;3.60;;
29120;SDS011;16191;49.548;8.658;2023-04-29T14:33:56;4.55;;;3.42;;
29120;SDS011;16191;49.548;8.658;2023-04-29T14:36:23;5.57;;;3.90;;
29120;SDS011;16191;49.548;8.658;2023-04-29T14:38:51;3.83;;;2.90;;
29120;SDS011;16191;49.548;8.658;2023-04-29T14:41:18;2.88;;;2.53;;
29120;SDS011;16191;49.548;8.658;2023-04-29T14:43:47;4.35;;;3.17;;
29120;SDS011;16191;49.548;8.658;2023-04-29T14:46:14;4.55;;;3.30;;
29120;SDS011;16191;49.548;8.658;2023-04-29T14:48:40;4.40;;;3.72;;
29120;SDS011;16191;49.548;8.658;2023-04-29T14:51:07;5.82;;;3.22;;
29120;SDS011;16191;49.548;8.658;2023-04-29T14:53:34;3.92;;;3.08;;
29120;SDS011;16191;49.548;8.658;2023-04-29T14:56:01;3.20;;;2.90;;
29120;SDS011;16191;49.548;8.658;2023-04-29T14:58:29;3.75;;;2.80;;
29120;SDS011;16191;49.548;8.658;2023-04-29T15:00:55;3.70;;;3.00;;
29120;SDS011;16191;49.548;8.658;2023-04-29T15:03:22;5.93;;;3.53;;
29120;SDS011;16191;49.548;8.658;2023-04-29T15:05:50;5.40;;;3.55;;
29120;SDS011;16191;49.548;8.658;2023-04-29T15:08:17;4.40;;;3.35;;
29120;SDS011;16191;49.548;8.658;2023-04-29T15:10:44;6.07;;;3.42;;
29120;SDS011;16191;49.548;8.658;2023-04-29T15:13:15;4.45;;;2.90;;
29120;SDS011;16191;49.548;8.658;2023-04-29T15:15:41;4.55;;;3.03;;
29120;SDS011;16191;49.548;8.658;2023-04-29T15:18:08;3.78;;;3.00;;
29120;SDS011;16191;49.548;8.658;2023-04-29T15:20:35;3.65;;;3.20;;
29120;SDS011;16191;49.548;8.658;2023-04-29T15:23:03;5.57;;;2.90;;
29120;SDS011;16191;49.548;8.658;2023-04-29T15:25:30;3.60;;;2.58;;
29120;SDS011;16191;49.548;8.658;2023-04-29T15:28:01;3.60;;;2.70;;
29120;SDS011;16191;49.548;8.658;2023-04-29T15:30:29;3.17;;;2.50;;